Disclaimer

Please do not use the information listed here in-flight or in-navigation, as they are not provided to us by the airports but are provided by volunteers, so they might be outdated.

Search


Regions


Airport information page

Radio informations:
Tower (TWR) - 40.6 MHz
RADAR - 123.3 MHz
BREMEN RADAR - 131.325 MHz

Airport informations:
Latitude: 52° 16' 42.60" N
Longitude: 009° 04' 55.80" E
Elevation: 230 feet - 70 meters
Operating hours: Remarks
Operating agency: Military
Timezone: UTC+1(+2DT) - Last Sunday in March to last Sunday in October
Fuel: Jet A1+, Jet A1 with icing inhibitor.

Runway information:
08/26 - 6010 x 148 feet< - >1832 x 45 meters

Recent METARs:
ETHB 191620Z 08015KT 9999 FEW014TCU BKN018 05/01 Q1019 WHT BLU TEMPO GRN
ETHB 191720Z 09017KT 9999 BKN020 BKN064 04/00 Q1019 WHT BLU TEMPO GRN
ETHB 191720Z 09017KT 9999 BKN020 BKN064 04/00 Q1019 WHT BLU TEMPO GRN

Airport on the map: